createdAt,value
2023-02-28T00:00:53.309Z,2.97
2023-02-28T00:03:22.959Z,3.55
2023-02-28T00:05:52.424Z,3.13
2023-02-28T00:08:21.863Z,3.47
2023-02-28T00:10:51.285Z,3.60
2023-02-28T00:13:20.715Z,3.30
2023-02-28T00:16:02.816Z,3.42
2023-02-28T00:18:32.462Z,3.05
2023-02-28T00:21:02.184Z,3.20
2023-02-28T00:23:31.877Z,3.40
2023-02-28T00:26:01.365Z,3.53
2023-02-28T00:28:30.977Z,3.60
2023-02-28T00:31:03.788Z,3.20
2023-02-28T00:33:33.306Z,3.80
2023-02-28T00:36:11.354Z,3.63
2023-02-28T00:38:42.529Z,3.47
2023-02-28T00:41:12.617Z,3.67
2023-02-28T00:43:42.637Z,3.17
2023-02-28T00:46:15.588Z,3.63
2023-02-28T00:48:45.194Z,3.75
2023-02-28T00:51:14.696Z,3.83
2023-02-28T00:53:44.333Z,3.50
2023-02-28T00:56:14.597Z,3.03
2023-02-28T00:58:44.228Z,3.75
2023-02-28T01:01:15.680Z,3.40
2023-02-28T01:03:45.162Z,3.72
2023-02-28T01:06:14.625Z,4.60
2023-02-28T01:08:44.374Z,3.50
2023-02-28T01:11:18.258Z,4.18
2023-02-28T01:13:48.987Z,4.47
2023-02-28T01:16:20.164Z,4.55
2023-02-28T01:18:49.664Z,4.82
2023-02-28T01:21:23.361Z,3.65
2023-02-28T01:23:53.896Z,3.80
2023-02-28T01:26:25.042Z,4.07
2023-02-28T01:28:55.615Z,3.90
2023-02-28T01:31:27.128Z,3.35
2023-02-28T01:33:56.767Z,3.70
2023-02-28T01:36:27.792Z,3.50
2023-02-28T01:38:58.906Z,3.60
2023-02-28T01:41:33.480Z,3.40
2023-02-28T01:44:08.504Z,4.25
2023-02-28T01:46:39.321Z,4.13
2023-02-28T01:49:15.663Z,4.15
2023-02-28T01:51:52.351Z,3.75
2023-02-28T01:54:28.043Z,3.50
2023-02-28T01:57:03.223Z,3.58
2023-02-28T01:59:41.527Z,4.15
2023-02-28T02:02:12.706Z,4.50
2023-02-28T02:04:53.189Z,3.67
2023-02-28T02:07:25.839Z,3.47
2023-02-28T02:10:06.545Z,3.83
2023-02-28T02:13:27.066Z,3.55
2023-02-28T02:16:10.967Z,3.65
2023-02-28T02:18:49.191Z,3.90
2023-02-28T02:22:33.682Z,4.30
2023-02-28T02:25:23.801Z,4.90
2023-02-28T02:28:47.451Z,4.53
2023-02-28T02:31:54.114Z,2.67
2023-02-28T02:34:44.776Z,3.55
2023-02-28T02:37:29.988Z,4.50
2023-02-28T02:40:12.409Z,4.07
2023-02-28T02:42:53.071Z,3.90
2023-02-28T02:45:29.533Z,4.32
2023-02-28T02:48:01.801Z,3.50
2023-02-28T02:50:41.495Z,3.92
2023-02-28T02:53:13.254Z,4.85
2023-02-28T02:55:48.606Z,4.05
2023-02-28T02:58:24.640Z,4.38
2023-02-28T03:01:00.252Z,3.60
2023-02-28T03:03:32.528Z,4.18
2023-02-28T03:06:05.136Z,3.72
2023-02-28T03:08:39.443Z,4.72
2023-02-28T03:11:15.854Z,4.07
2023-02-28T03:14:16.482Z,4.45
2023-02-28T03:17:25.799Z,4.15
2023-02-28T03:20:09.019Z,4.75
2023-02-28T03:23:00.722Z,4.30
2023-02-28T03:25:40.464Z,4.88
2023-02-28T03:28:18.071Z,5.13
2023-02-28T03:30:54.736Z,4.63
2023-02-28T03:33:30.556Z,4.40
2023-02-28T03:36:06.779Z,5.10
2023-02-28T03:38:42.526Z,4.18
2023-02-28T03:41:19.080Z,4.47
2023-02-28T03:43:55.836Z,4.65
2023-02-28T03:46:31.009Z,5.25
2023-02-28T03:49:10.349Z,6.10
2023-02-28T03:51:42.785Z,5.00
2023-02-28T03:54:20.258Z,5.00
2023-02-28T03:56:57.640Z,4.72
2023-02-28T03:59:34.599Z,4.72
2023-02-28T04:02:04.595Z,4.82
2023-02-28T04:04:34.351Z,5.00
2023-02-28T04:07:08.402Z,5.47
2023-02-28T04:09:39.758Z,5.47
2023-02-28T04:12:10.246Z,4.88
2023-02-28T04:14:39.744Z,5.63
2023-02-28T04:17:09.284Z,5.22
2023-02-28T04:19:39.050Z,5.93
2023-02-28T04:22:09.988Z,6.22
2023-02-28T04:24:42.299Z,6.22
2023-02-28T04:27:12.041Z,6.43
2023-02-28T04:29:45.532Z,6.20
2023-02-28T04:32:15.728Z,6.00
2023-02-28T04:34:45.287Z,5.97
2023-02-28T04:37:14.676Z,6.40
2023-02-28T04:39:46.041Z,5.53
2023-02-28T04:42:15.793Z,6.13
2023-02-28T04:44:45.217Z,6.38
2023-02-28T04:47:14.709Z,6.88
2023-02-28T04:49:44.117Z,6.32
2023-02-28T04:52:14.219Z,6.68
2023-02-28T04:54:45.050Z,6.43
2023-02-28T04:57:15.123Z,6.22
2023-02-28T04:59:45.081Z,6.28
2023-02-28T05:02:14.591Z,7.05
2023-02-28T05:04:44.071Z,6.78
2023-02-28T05:07:13.585Z,8.15
2023-02-28T05:09:44.371Z,7.72
2023-02-28T05:12:13.839Z,6.50
2023-02-28T05:14:43.590Z,6.53
2023-02-28T05:17:13.142Z,7.55
2023-02-28T05:19:42.574Z,7.47
2023-02-28T05:22:17.317Z,7.28
2023-02-28T05:24:48.096Z,7.75
2023-02-28T05:27:17.491Z,8.15
2023-02-28T05:29:47.187Z,8.02
2023-02-28T05:32:17.719Z,7.60
2023-02-28T05:34:47.426Z,8.30
2023-02-28T05:37:17.591Z,9.27
2023-02-28T05:39:48.446Z,7.85
2023-02-28T05:42:17.957Z,8.18
2023-02-28T05:44:48.433Z,7.72
2023-02-28T05:47:17.910Z,8.82
2023-02-28T05:49:47.340Z,8.50
2023-02-28T05:52:17.404Z,8.18
2023-02-28T05:54:48.991Z,8.10
2023-02-28T05:57:24.385Z,9.70
2023-02-28T05:59:54.344Z,8.00
2023-02-28T06:02:23.867Z,8.45
2023-02-28T06:04:53.289Z,9.00
2023-02-28T06:07:23.397Z,9.35
2023-02-28T06:09:54.211Z,10.48
2023-02-28T06:12:23.664Z,9.68
2023-02-28T06:14:53.134Z,9.90
2023-02-28T06:17:22.741Z,8.73
2023-02-28T06:19:52.194Z,9.07
2023-02-28T06:22:21.611Z,10.70
2023-02-28T06:24:51.402Z,9.90
2023-02-28T06:27:23.040Z,9.25
2023-02-28T06:29:57.540Z,9.05
2023-02-28T06:32:28.085Z,9.85
2023-02-28T06:34:58.962Z,9.60
2023-02-28T06:37:28.502Z,9.55
2023-02-28T06:39:58.288Z,9.05
2023-02-28T06:42:31.908Z,9.32
2023-02-28T06:45:04.228Z,9.90
2023-02-28T06:47:34.143Z,9.50
2023-02-28T06:50:04.114Z,10.77
2023-02-28T06:52:33.902Z,10.48
2023-02-28T06:55:04.243Z,11.43
2023-02-28T06:57:37.842Z,9.98
2023-02-28T07:00:15.259Z,11.75
2023-02-28T07:02:44.896Z,10.80
2023-02-28T07:05:14.724Z,10.93
2023-02-28T07:07:46.355Z,11.45
2023-02-28T07:10:20.181Z,11.60
2023-02-28T07:12:52.333Z,11.80
2023-02-28T07:15:21.862Z,10.85
2023-02-28T07:17:51.610Z,12.65
2023-02-28T07:20:21.692Z,12.77
2023-02-28T07:22:57.056Z,10.48
2023-02-28T07:25:28.687Z,12.27
2023-02-28T07:28:01.255Z,11.10
2023-02-28T07:30:30.852Z,11.82
2023-02-28T07:33:00.376Z,12.88
2023-02-28T07:35:29.986Z,12.40
2023-02-28T07:38:00.607Z,12.38
2023-02-28T07:40:30.392Z,12.65
2023-02-28T07:43:02.323Z,13.98
2023-02-28T07:45:35.264Z,13.45
2023-02-28T07:48:05.321Z,11.95
2023-02-28T07:50:35.660Z,10.52
2023-02-28T07:53:05.527Z,13.45
2023-02-28T07:55:35.078Z,12.63
2023-02-28T07:58:06.122Z,13.15
2023-02-28T08:00:35.860Z,12.23
2023-02-28T08:03:05.586Z,13.55
2023-02-28T08:05:35.187Z,11.63
2023-02-28T08:08:04.883Z,13.45
2023-02-28T08:10:34.676Z,13.80
2023-02-28T08:13:05.900Z,13.38
2023-02-28T08:15:35.676Z,14.55
2023-02-28T08:18:05.561Z,14.88
2023-02-28T08:20:36.603Z,12.05
2023-02-28T08:23:06.760Z,14.05
2023-02-28T08:25:36.657Z,13.10
2023-02-28T08:28:09.882Z,12.90
2023-02-28T08:30:41.989Z,13.90
2023-02-28T08:33:12.487Z,14.30
2023-02-28T08:35:42.453Z,13.32
2023-02-28T08:38:12.293Z,14.18
2023-02-28T08:40:42.546Z,14.38
2023-02-28T08:43:13.901Z,13.30
2023-02-28T08:45:43.779Z,13.32
2023-02-28T08:48:14.621Z,13.60
2023-02-28T08:50:50.422Z,13.75
2023-02-28T08:53:26.120Z,14.48
2023-02-28T08:56:01.303Z,12.82
2023-02-28T08:58:32.584Z,15.30
2023-02-28T09:01:02.647Z,13.60
2023-02-28T09:03:32.151Z,14.27
2023-02-28T09:06:02.965Z,15.90
2023-02-28T09:08:33.133Z,15.05
2023-02-28T09:11:03.876Z,14.60
2023-02-28T09:13:35.487Z,13.32
2023-02-28T09:16:09.920Z,14.90
2023-02-28T09:18:40.917Z,14.13
2023-02-28T09:21:15.000Z,15.05
2023-02-28T09:23:46.262Z,13.45
2023-02-28T09:26:17.995Z,13.95
2023-02-28T09:28:48.946Z,13.02
2023-02-28T09:31:24.434Z,14.18
2023-02-28T09:33:57.813Z,14.40
2023-02-28T09:36:41.881Z,13.88
2023-02-28T09:39:16.576Z,13.82
2023-02-28T09:41:51.963Z,14.50
2023-02-28T09:44:34.035Z,14.80
2023-02-28T09:47:15.346Z,14.52
2023-02-28T09:49:50.047Z,14.20
2023-02-28T09:52:24.387Z,15.10
2023-02-28T09:54:55.865Z,14.45
2023-02-28T09:57:40.166Z,14.75
2023-02-28T10:00:20.771Z,13.43
2023-02-28T10:03:28.131Z,13.65
2023-02-28T10:06:07.993Z,13.95
2023-02-28T10:08:47.983Z,13.55
2023-02-28T10:11:21.672Z,12.50
2023-02-28T10:14:02.513Z,12.48
2023-02-28T10:16:39.909Z,14.00
2023-02-28T10:19:21.380Z,13.00
2023-02-28T10:22:00.284Z,12.15
2023-02-28T10:24:40.155Z,13.85
2023-02-28T10:27:19.639Z,13.23
2023-02-28T10:29:54.192Z,14.52
2023-02-28T10:32:31.042Z,13.32
2023-02-28T10:35:13.604Z,13.10
2023-02-28T10:37:48.848Z,13.38
2023-02-28T10:40:36.523Z,13.20
2023-02-28T10:43:18.180Z,12.90
2023-02-28T10:46:02.630Z,12.43
2023-02-28T10:48:40.203Z,12.30
2023-02-28T10:51:13.829Z,13.93
2023-02-28T10:54:02.673Z,13.10
2023-02-28T10:56:34.499Z,11.48
2023-02-28T10:59:28.741Z,12.88
2023-02-28T11:02:00.287Z,12.48
2023-02-28T11:04:41.890Z,13.45
2023-02-28T11:07:24.556Z,11.90
2023-02-28T11:09:58.574Z,12.38
2023-02-28T11:12:37.876Z,12.07
2023-02-28T11:15:28.378Z,12.82
2023-02-28T11:18:02.747Z,13.52
2023-02-28T11:20:36.622Z,12.52
2023-02-28T11:23:13.858Z,14.25
2023-02-28T11:25:54.794Z,13.63
2023-02-28T11:28:33.473Z,13.40
2023-02-28T11:31:18.012Z,13.80
2023-02-28T11:33:51.912Z,12.52
2023-02-28T11:36:26.945Z,12.15
2023-02-28T11:39:02.584Z,12.85
2023-02-28T11:42:09.400Z,13.73
2023-02-28T11:44:59.484Z,12.73
2023-02-28T11:47:41.176Z,12.15
2023-02-28T11:50:56.250Z,12.95
2023-02-28T11:53:54.472Z,12.55
2023-02-28T11:56:34.143Z,13.38
2023-02-28T11:59:36.739Z,12.10
2023-02-28T12:02:30.285Z,11.95
2023-02-28T12:05:25.078Z,13.98
2023-02-28T12:08:25.105Z,12.75
2023-02-28T12:11:14.597Z,11.77
2023-02-28T12:14:00.691Z,13.00
2023-02-28T12:16:48.395Z,12.70
2023-02-28T12:19:25.960Z,12.00
2023-02-28T12:22:27.672Z,14.68
2023-02-28T12:26:04.157Z,11.80
2023-02-28T12:28:42.144Z,11.35
2023-02-28T12:31:20.678Z,12.80
2023-02-28T12:33:59.509Z,12.13
2023-02-28T12:36:29.627Z,12.00
2023-02-28T12:39:07.683Z,13.43
2023-02-28T12:41:47.430Z,11.55
2023-02-28T12:44:24.189Z,11.25
2023-02-28T12:46:57.993Z,12.43
2023-02-28T12:49:36.143Z,12.50
2023-02-28T12:52:12.010Z,12.05
2023-02-28T12:54:56.384Z,13.40
2023-02-28T12:57:39.064Z,11.35
2023-02-28T13:00:16.994Z,12.23
2023-02-28T13:03:31.953Z,12.63
2023-02-28T13:06:31.150Z,12.43
2023-02-28T13:09:11.551Z,10.85
2023-02-28T13:11:45.743Z,11.20
2023-02-28T13:14:31.355Z,11.05
2023-02-28T13:17:14.051Z,11.20
2023-02-28T13:19:48.625Z,11.77
2023-02-28T13:22:41.975Z,11.32
2023-02-28T13:25:55.567Z,10.73
2023-02-28T13:29:26.692Z,11.17
2023-02-28T13:32:40.056Z,11.70
2023-02-28T13:35:40.491Z,11.32
2023-02-28T13:38:39.960Z,11.05
2023-02-28T13:41:46.276Z,10.85
2023-02-28T13:44:24.261Z,11.05
2023-02-28T13:47:31.898Z,11.02
2023-02-28T13:50:25.244Z,11.23
2023-02-28T13:53:41.764Z,11.73
2023-02-28T13:56:31.609Z,11.98
2023-02-28T13:59:18.624Z,10.40
2023-02-28T14:02:31.746Z,10.95
2023-02-28T14:05:08.911Z,10.75
2023-02-28T14:07:47.191Z,10.68
2023-02-28T14:10:41.493Z,10.30
2023-02-28T14:13:49.358Z,10.48
2023-02-28T14:16:23.690Z,10.20
2023-02-28T14:19:01.272Z,11.02
2023-02-28T14:21:35.270Z,10.35
2023-02-28T14:24:53.814Z,9.32
2023-02-28T14:27:39.427Z,10.65
2023-02-28T14:31:03.134Z,10.45
2023-02-28T14:34:07.291Z,12.87
2023-02-28T14:39:15.462Z,10.45
2023-02-28T14:41:47.096Z,10.98
2023-02-28T15:39:27.962Z,9.57
2023-02-28T15:42:13.087Z,11.55
2023-02-28T15:44:42.636Z,10.13
2023-02-28T15:47:21.856Z,10.77
2023-02-28T15:49:55.006Z,10.35
2023-02-28T15:52:33.440Z,9.95
2023-02-28T15:55:13.706Z,11.75
2023-02-28T15:57:43.664Z,9.98
2023-02-28T16:00:18.180Z,11.02
2023-02-28T16:02:51.991Z,10.48
2023-02-28T16:05:31.573Z,10.40
2023-02-28T16:08:08.791Z,9.60
2023-02-28T16:10:39.662Z,11.90
2023-02-28T16:13:16.147Z,10.70
2023-02-28T16:15:46.595Z,10.73
2023-02-28T16:18:16.502Z,11.75
2023-02-28T16:20:46.471Z,11.30
2023-02-28T16:23:21.438Z,11.27
2023-02-28T16:25:52.509Z,10.02
2023-02-28T16:28:30.863Z,10.82
2023-02-28T16:31:03.670Z,13.48
2023-02-28T16:33:34.402Z,13.15
2023-02-28T16:36:04.477Z,11.98
2023-02-28T16:38:59.349Z,13.10
2023-02-28T16:41:31.914Z,14.63
2023-02-28T16:44:02.833Z,17.27
2023-02-28T16:46:37.189Z,15.45
2023-02-28T16:49:06.746Z,15.20
2023-02-28T16:51:36.817Z,13.57
2023-02-28T16:54:07.047Z,13.25
2023-02-28T16:56:47.494Z,12.35
2023-02-28T16:59:24.423Z,13.00
2023-02-28T17:01:54.222Z,12.55
2023-02-28T17:04:23.908Z,11.65
2023-02-28T17:06:53.548Z,13.30
2023-02-28T17:09:36.555Z,13.90
2023-02-28T17:12:37.597Z,14.27
2023-02-28T17:15:10.653Z,16.90
2023-02-28T17:17:41.158Z,15.90
2023-02-28T17:20:16.275Z,18.02
2023-02-28T17:22:46.005Z,15.57
2023-02-28T17:25:15.614Z,17.17
2023-02-28T17:27:46.733Z,17.25
2023-02-28T17:30:20.141Z,16.70
2023-02-28T17:35:44.311Z,17.23
2023-02-28T17:38:39.083Z,18.63
2023-02-28T17:41:09.924Z,17.08
2023-02-28T17:43:41.869Z,17.38
2023-02-28T17:46:21.599Z,15.55
2023-02-28T17:48:52.364Z,16.38
2023-02-28T17:51:48.081Z,16.98
2023-02-28T17:54:19.147Z,16.42
2023-02-28T17:56:49.179Z,18.23
2023-02-28T17:59:20.429Z,15.07
2023-02-28T18:01:50.055Z,15.93
2023-02-28T18:05:01.237Z,17.73
2023-02-28T18:07:30.772Z,17.98
2023-02-28T18:10:28.429Z,16.60
2023-02-28T18:12:58.057Z,17.58
2023-02-28T18:15:43.874Z,19.60
2023-02-28T18:18:13.526Z,20.30
2023-02-28T18:20:43.202Z,20.35
2023-02-28T18:23:12.894Z,21.02
2023-02-28T18:25:42.626Z,23.10
2023-02-28T18:28:12.184Z,19.52
2023-02-28T18:30:44.318Z,18.05
2023-02-28T18:33:14.089Z,16.35
2023-02-28T18:35:44.777Z,17.10
2023-02-28T18:38:19.296Z,16.75
2023-02-28T18:40:55.485Z,16.02
2023-02-28T18:43:25.172Z,17.45
2023-02-28T18:45:56.335Z,17.50
2023-02-28T18:48:26.281Z,16.60
2023-02-28T18:50:55.856Z,15.63
2023-02-28T18:53:56.205Z,17.13
2023-02-28T18:56:27.613Z,14.02
2023-02-28T18:58:57.348Z,14.40
2023-02-28T19:01:32.073Z,15.95
2023-02-28T19:04:03.669Z,15.93
2023-02-28T19:06:34.591Z,16.15
2023-02-28T19:09:06.607Z,17.55
2023-02-28T19:11:36.876Z,18.65
2023-02-28T19:14:06.772Z,17.80
2023-02-28T19:16:38.047Z,16.38
2023-02-28T19:19:07.666Z,15.50
2023-02-28T19:21:37.493Z,16.30
2023-02-28T19:24:08.013Z,16.83
2023-02-28T19:26:37.711Z,18.17
2023-02-28T19:29:07.579Z,16.88
2023-02-28T19:31:38.939Z,17.30
2023-02-28T19:34:08.613Z,16.65
2023-02-28T19:36:38.362Z,16.98
2023-02-28T19:39:08.513Z,16.20
2023-02-28T19:41:38.184Z,16.48
2023-02-28T19:44:07.875Z,14.90
2023-02-28T19:46:39.257Z,17.17
2023-02-28T19:49:09.057Z,15.90
2023-02-28T19:51:39.478Z,16.48
2023-02-28T19:54:09.930Z,18.30
2023-02-28T19:56:40.135Z,15.63
2023-02-28T19:59:21.044Z,15.55
2023-02-28T20:01:56.288Z,16.95
2023-02-28T20:04:28.303Z,15.52
2023-02-28T20:06:58.127Z,15.13
2023-02-28T20:09:32.165Z,16.52
2023-02-28T20:12:02.594Z,16.52
2023-02-28T20:14:33.531Z,15.13
2023-02-28T20:17:04.605Z,15.90
2023-02-28T20:19:34.214Z,16.98
2023-02-28T20:22:03.938Z,15.13
2023-02-28T20:24:33.719Z,16.60
2023-02-28T20:27:03.964Z,16.50
2023-02-28T20:29:35.102Z,16.77
2023-02-28T20:32:08.235Z,15.73
2023-02-28T20:34:38.118Z,17.85
2023-02-28T20:37:08.927Z,15.52
2023-02-28T20:39:38.557Z,16.52
2023-02-28T20:42:11.139Z,15.63
2023-02-28T20:44:41.129Z,15.85
2023-02-28T20:47:14.880Z,16.67
2023-02-28T20:49:44.565Z,14.95
2023-02-28T20:52:14.674Z,16.63
2023-02-28T20:54:44.325Z,15.98
2023-02-28T20:57:14.165Z,15.27
2023-02-28T20:59:43.870Z,15.70
2023-02-28T21:02:18.219Z,17.48
2023-02-28T21:04:48.095Z,16.17
2023-02-28T21:07:17.666Z,16.08
2023-02-28T21:09:47.296Z,16.27
2023-02-28T21:12:17.001Z,16.42
2023-02-28T21:14:46.749Z,15.40
2023-02-28T21:17:17.765Z,15.15
2023-02-28T21:19:48.011Z,15.32
2023-02-28T21:22:17.660Z,17.83
2023-02-28T21:24:47.329Z,15.27
2023-02-28T21:27:16.911Z,17.05
2023-02-28T21:29:46.421Z,15.25
2023-02-28T21:32:17.889Z,17.73
2023-02-28T21:34:48.032Z,16.33
2023-02-28T21:37:17.694Z,17.35
2023-02-28T21:39:47.410Z,16.17
2023-02-28T21:42:17.026Z,16.70
2023-02-28T21:44:47.197Z,16.42
2023-02-28T21:47:18.016Z,16.67
2023-02-28T21:49:47.518Z,16.13
2023-02-28T21:52:21.828Z,16.30
2023-02-28T21:54:51.361Z,16.55
2023-02-28T21:57:20.925Z,15.68
2023-02-28T21:59:50.821Z,15.90
2023-02-28T22:02:21.912Z,16.65
2023-02-28T22:04:51.874Z,16.80
2023-02-28T22:07:21.556Z,16.58
2023-02-28T22:09:51.593Z,16.52
2023-02-28T22:12:21.430Z,16.45
2023-02-28T22:14:51.613Z,16.05
2023-02-28T22:17:23.248Z,16.48
2023-02-28T22:19:52.964Z,15.55
2023-02-28T22:22:22.556Z,16.88
2023-02-28T22:24:52.236Z,15.65
2023-02-28T22:27:22.115Z,16.60
2023-02-28T22:29:52.129Z,15.60
2023-02-28T22:32:23.784Z,15.15
2023-02-28T22:34:54.070Z,16.05
2023-02-28T22:37:23.817Z,16.05
2023-02-28T22:39:53.518Z,15.85
2023-02-28T22:42:23.133Z,15.55
2023-02-28T22:44:53.217Z,16.05
2023-02-28T22:47:26.508Z,15.70
2023-02-28T22:49:56.155Z,16.15
2023-02-28T22:52:25.804Z,15.23
2023-02-28T22:54:55.596Z,16.00
2023-02-28T22:57:25.324Z,15.00
2023-02-28T22:59:55.046Z,15.63
2023-02-28T23:02:26.255Z,16.63
2023-02-28T23:04:56.668Z,15.95
2023-02-28T23:07:31.650Z,16.25
2023-02-28T23:10:01.517Z,15.68
2023-02-28T23:12:31.168Z,14.82
2023-02-28T23:15:01.300Z,15.27
2023-02-28T23:17:34.343Z,16.23
2023-02-28T23:20:04.837Z,14.68
2023-02-28T23:22:34.660Z,15.93
2023-02-28T23:25:04.666Z,17.15
2023-02-28T23:27:34.278Z,16.02
2023-02-28T23:30:04.447Z,14.93
2023-02-28T23:32:35.523Z,15.75
2023-02-28T23:35:07.018Z,17.52
2023-02-28T23:37:37.706Z,16.65
2023-02-28T23:40:12.797Z,16.25
2023-02-28T23:42:42.207Z,16.83
2023-02-28T23:45:12.533Z,16.35
2023-02-28T23:47:43.382Z,15.45
2023-02-28T23:50:13.639Z,16.42
2023-02-28T23:52:43.587Z,14.98
2023-02-28T23:55:13.244Z,14.38
2023-02-28T23:57:42.854Z,17.13
